Share

Fargo, ND

Groovetones Central (KNDFARGO15) Elev 901 ft | 46.90 °N, 96.79 °W | Change Station

Current weather conditions updated 2 seconds ago

Clear
Clear
65.6 °F
Feels Like 65.6 °F
N
4.0
Wind Variable Wind from SE
Gusts 0.0 mph
Sunrise 6:30 AM
Sunset 8:22 PM
Moon Waning Gibbous

Tomorrow is forecast to be Much Cooler than today.

Pressure 29.89 in
Visibility 10.0 miles
Clouds Clear
Dew Point 36 °F
Humidity 34%
Rainfall 0.00 in
Snow Depth Not available.
UV 0 out of 16
Pollen 10.70 out of 12
Air Quality Not available.
Flu Activity Sporadic
METAR KJKJ 210141Z AUTO 15007KT 10SM CLR 17/04 A2989 RMK AO2

More Conditions Fewer Conditions

Pressure 29.89 in
Visibility 10.0 miles
Clouds Clear
Dew Point 36 °F
Humidity 34%
Rainfall 0.00 in
Snow Depth Not available.
UV 0 out of 16
Pollen 10.70 out of 12
Air Quality Not available.
Flu Activity Sporadic
METAR KJKJ 210141Z AUTO 15007KT 10SM CLR 17/04 A2989 RMK AO2

More Conditions Fewer Conditions

10-Day Weather Forecast

Almanac

Astronomy

Apr. 20, 2014 Rise Set
Actual Time 6:30 AM CDT 8:22 PM CDT
Civil Twilight 5:58 AM CDT 8:55 PM CDT
Nautical Twilight 5:18 AM CDT 9:35 PM CDT
Astronomical Twilight 4:34 AM CDT 10:19 PM CDT
Moon 1:11 AM CDT (4/20) 10:44 AM CDT (4/20)
Length of Visible Light 14h 57m
Length of Day
13h 52m
Tomorrow will be 3m 9s longer.
Waning Gibbous, 64% of the Moon is Illuminated
Today
Waning Gibbous
Apr 22
Last Quarter
Apr 29
New
May 6
First Quarter
May 14
Full

Today's Extremes

State Highs State Lows

Community

  • Sun Pillar and Geese
    Sun Pillar and Geese
  • Easter Morning Fog
    Easter Morning Fog
  • Easter Dance
    Easter Dance
  • spring skiing mount Baker WA
    spring skiing mount Baker WA
  • Morning Sun
    Morning Sun

WunderPhotos

Upload Photos

1,703,518 photos uploaded!

WunderBlogs® & News

Nearby

Snow Depth

Station Depth Elevation
No new snow has been reported.

Coastal Water Temperatures

Place Temperature
No Stations Reporting

Earthquake Activity

City Distance Mag. Time & Date
No recent earthquake activity has been reported nearby.
Minimum magnitude displayed is 2.5.

Nearby Weather Stations

Station Location Temp. Dew Point Humidity Wind Precip. Elev Updated Type
Groovetones Central, Fargo, ND 65.6 °F 36 °F 34% SE  at  4.0 mph 0.00 in / hr 901 ft 9:11 PM CDT Rapid Fire
Fargo, ND 65.2 °F 38 °F 37% SSE  at  3.0 mph 0.00 in / hr 901 ft 9:11 PM CDT Rapid Fire
Mhd's Co-op Observer, N Moorhead, MN 63.5 °F 38 °F 38% SSE  at  0.0 mph 0.00 in / hr 890 ft 9:11 PM CDT Rapid Fire
Harwood, ND, Harwood, ND 60.1 °F 37 °F 42% ESE  at  0.0 mph 0.00 in / hr 879 ft 8:56 PM CDT Normal
South Fargo, Fargo, ND 63.5 °F 31 °F 30% SE  at  4.0 mph 0.00 in / hr 902 ft 9:09 PM CDT Normal
Westport Beach, West Fargo, ND 61.7 °F 40 °F 44% SE  at  3.7 mph - / hr 896 ft 9:07 PM CDT Normal

Show More Stations Show Fewer Stations

What do you think?

We're not finished. Please let us know what you like, what you don't like, and what you are still missing.